Terminal Aerodrome Forecast
Issued by NWS

Home | Current Version | Previous Version | Text Only | Print | Product List | Glossary On
Versions: 1 2 3 4 5 6 7 8 9 10 11 12
000
FTUS46 KSTO 171100
TAFMHR
TAF
KMHR 171120Z 1712/1812 VRB06KT P6SM SCT250
     FM172000 21011G18KT P6SM BKN200
     FM180300 20006KT P6SM SCT100 BKN200=

USA.gov is the U.S. government's official web portal to all federal, state and local government web resources and services.